Time;durP1;ratioP1;P1;durP2;ratioP2;P2;SDS_P1;SDS_P2;PMS_P1;PMS_P2;Temp;Humidity;BMP_temperature;BMP_pressure;BME280_temperature;BME280_humidity;BME280_pressure;Samples;Min_cycle;Max_cycle;Signal;HPM_P1;HPM_P2
2022/11/04 00:01:24;;;;;;;3.97;3.10;;;;;;;20.96;47.68;99725.09;5050105;28;20032;-65
2022/11/04 00:03:51;;;;;;;3.58;2.58;;;;;;;20.84;48.14;99720.72;5048569;28;20120;-65
2022/11/04 00:06:16;;;;;;;3.80;2.58;;;;;;;20.94;48.07;99721.03;5047759;28;20033;-65
2022/11/04 00:08:42;;;;;;;3.05;2.50;;;;;;;20.81;48.02;99721.91;5048870;28;20052;-63
2022/11/04 00:13:54;;;;;;;3.30;2.40;;;;;;;20.84;47.99;99712.78;5047856;28;20036;-64
2022/11/04 00:19:03;;;;;;;6.78;3.10;;;;;;;20.93;47.47;99719.41;5044121;28;20079;-64
2022/11/04 00:29:39;;;;;;;3.15;2.80;;;;;;;20.97;47.75;99731.19;5052610;28;20043;-64
2022/11/04 00:34:48;;;;;;;3.28;2.45;;;;;;;20.92;48.01;99729.19;5044987;28;20135;-64
2022/11/04 00:37:14;;;;;;;4.40;2.83;;;;;;;20.93;47.90;99728.16;5046216;28;20372;-64
2022/11/04 00:39:39;;;;;;;2.88;2.42;;;;;;;20.88;48.17;99738.59;5046095;28;20040;-64
2022/11/04 00:42:04;;;;;;;2.95;2.20;;;;;;;20.90;48.03;99727.78;5051362;28;20505;-64
2022/11/04 00:44:30;;;;;;;3.10;2.40;;;;;;;20.98;47.64;99733.63;5044270;28;20040;-64
2022/11/04 00:46:55;;;;;;;3.55;2.45;;;;;;;20.92;47.80;99744.25;5047765;28;22040;-64
2022/11/04 00:49:21;;;;;;;4.15;2.67;;;;;;;20.90;47.85;99752.41;5056105;28;20115;-64
2022/11/04 00:51:46;;;;;;;3.78;2.35;;;;;;;20.93;47.89;99756.47;5087267;28;20047;-64
2022/11/04 00:54:12;;;;;;;3.35;2.20;;;;;;;20.96;47.87;99764.78;5086753;28;20040;-64
2022/11/04 00:56:38;;;;;;;3.83;2.60;;;;;;;20.97;47.95;99773.53;5086464;28;20435;-64
2022/11/04 00:59:04;;;;;;;3.97;2.80;;;;;;;20.90;48.09;99780.72;5085302;28;20546;-64
2022/11/04 01:01:30;;;;;;;3.70;2.65;;;;;;;20.86;48.30;99790.09;5089313;28;20040;-64
2022/11/04 01:03:56;;;;;;;3.40;2.42;;;;;;;20.89;47.99;99785.19;5080794;28;20051;-64
2022/11/04 01:06:23;;;;;;;3.92;2.20;;;;;;;20.95;47.84;99804.69;5086931;28;20040;-64
2022/11/04 01:08:58;;;;;;;2.70;2.30;;;;;;;20.85;47.98;99814.94;5087160;28;20043;-64
2022/11/04 01:11:24;;;;;;;3.13;2.30;;;;;;;20.86;47.95;99817.38;5085247;28;20040;-64
2022/11/04 01:13:50;;;;;;;3.10;2.45;;;;;;;20.87;48.10;99832.22;5087460;28;20032;-64
2022/11/04 01:16:16;;;;;;;3.28;2.30;;;;;;;20.90;48.00;99846.88;5092442;28;20045;-64
2022/11/04 01:18:42;;;;;;;3.30;2.30;;;;;;;20.89;47.94;99847.91;5088172;28;20032;-64
2022/11/04 01:21:12;;;;;;;2.67;2.33;;;;;;;20.79;48.23;99854.44;5089575;28;20101;-64
2022/11/04 01:23:38;;;;;;;3.47;2.72;;;;;;;20.85;48.10;99847.50;5100995;27;20119;-64
2022/11/04 01:26:14;;;;;;;3.33;2.33;;;;;;;20.89;48.04;99854.00;5088560;28;20435;-64
2022/11/04 01:28:40;;;;;;;3.75;2.67;;;;;;;20.92;48.14;99868.66;5088613;28;20638;-64
2022/11/04 01:31:12;;;;;;;2.20;2.00;;;;;;;20.94;47.77;99877.19;5092948;28;20031;-64
2022/11/04 01:33:38;;;;;;;2.75;1.92;;;;;;;20.85;48.08;99879.25;5088556;28;20031;-64
2022/11/04 01:36:05;;;;;;;3.83;2.30;;;;;;;20.92;47.89;99882.69;5084525;28;20586;-64
2022/11/04 01:38:31;;;;;;;3.05;2.47;;;;;;;20.84;48.04;99879.47;5086359;28;20047;-64
2022/11/04 01:40:57;;;;;;;2.60;2.20;;;;;;;20.89;48.12;99883.09;5089073;28;20164;-64
2022/11/04 01:43:41;;;;;;;3.40;2.20;;;;;;;20.92;48.12;99893.28;5089882;28;20047;-64
2022/11/04 01:46:11;;;;;;;2.50;2.30;;;;;;;20.81;48.32;99901.84;5083163;28;20441;-64
2022/11/04 01:48:36;;;;;;;;;;;;;;;20.85;48.12;99896.97;5085932;28;20070;-64
2022/11/04 01:51:03;;;;;;;3.15;2.10;;;;;;;20.94;48.08;99895.72;5087145;28;20049;-64
2022/11/04 01:53:36;;;;;;;2.83;2.17;;;;;;;20.96;48.07;99909.53;5086354;28;20032;-64
2022/11/04 01:56:10;;;;;;;1.85;1.73;;;;;;;20.94;47.83;99907.09;5088683;28;20107;-64
2022/11/04 01:58:45;;;;;;;2.47;2.10;;;;;;;21.00;47.81;99898.31;5089881;28;20086;-64
2022/11/04 02:01:11;;;;;;;2.42;2.10;;;;;;;20.84;48.29;99892.69;5089227;28;20546;-64
2022/11/04 02:03:49;;;;;;;2.40;2.00;;;;;;;20.88;48.01;99892.06;5090163;28;20031;-64
2022/11/04 02:06:17;;;;;;;2.30;2.10;;;;;;;20.88;48.09;99902.66;5092695;28;20694;-64
2022/11/04 02:08:44;;;;;;;2.67;2.20;;;;;;;20.85;48.01;99894.31;5084675;28;20139;-64
2022/11/04 02:12:48;;;;;;;2.67;2.05;;;;;;;20.89;47.94;99893.69;5093780;28;20505;-64
2022/11/04 02:13:56;;;;;;;2.70;2.00;;;;;;;20.92;47.93;99900.41;5092591;28;20032;-64
2022/11/04 02:16:44;;;;;;;2.20;1.88;;;;;;;20.90;48.06;99895.31;5088477;28;20148;-64
2022/11/04 02:19:31;;;;;;;2.30;1.90;;;;;;;20.98;47.71;99896.91;5086769;28;20059;-64
2022/11/04 02:22:22;;;;;;;2.10;1.90;;;;;;;20.90;48.08;99905.09;5093126;28;20042;-64
2022/11/04 02:25:23;;;;;;;2.25;1.85;;;;;;;20.91;48.02;99914.66;5093993;28;20068;-64
2022/11/04 02:28:08;;;;;;;2.88;1.90;;;;;;;20.84;48.24;99914.69;5089005;28;20035;-64
2022/11/04 02:30:47;;;;;;;4.10;2.20;;;;;;;20.85;48.23;99916.31;5088446;28;20046;-64
2022/11/04 02:33:24;;;;;;;3.20;2.00;;;;;;;20.88;48.06;99923.00;5093105;28;20077;-64
2022/11/04 02:36:14;;;;;;;2.80;1.80;;;;;;;20.89;47.92;99933.38;5090853;28;20039;-64
2022/11/04 02:39:01;;;;;;;4.28;2.05;;;;;;;20.88;48.16;99939.69;5092765;28;20474;-64
2022/11/04 02:41:50;;;;;;;1.75;1.65;;;;;;;20.82;48.09;99945.81;5093274;28;20035;-64
2022/11/04 02:44:20;;;;;;;2.20;2.00;;;;;;;20.82;48.00;99953.75;5087621;28;20043;-64
2022/11/04 02:46:53;;;;;;;2.25;1.73;;;;;;;20.91;48.03;99964.94;5093053;28;20664;-64
2022/11/04 02:49:40;;;;;;;2.03;1.77;;;;;;;20.84;48.26;99970.25;5092592;28;20044;-64
2022/11/04 02:52:13;;;;;;;2.28;1.75;;;;;;;20.95;47.98;99980.19;5093245;28;20051;-64
2022/11/04 02:54:51;;;;;;;2.10;1.90;;;;;;;20.91;47.98;99981.63;5092778;28;20024;-64
2022/11/04 02:57:25;;;;;;;1.85;1.60;;;;;;;20.93;47.85;99997.28;5092301;28;20036;-64
2022/11/04 03:00:07;;;;;;;2.00;1.80;;;;;;;20.97;47.71;100001.16;5091991;28;20104;-64
2022/11/04 03:02:43;;;;;;;2.10;1.60;;;;;;;20.90;47.99;100008.31;5093349;28;20398;-64
2022/11/04 03:05:13;;;;;;;2.10;1.83;;;;;;;20.79;48.17;100007.09;5093897;28;20032;-64
2022/11/04 03:07:40;;;;;;;1.75;1.65;;;;;;;20.91;48.00;100010.75;5093819;28;20457;-64
2022/11/04 03:10:14;;;;;;;2.13;1.92;;;;;;;20.91;47.85;100010.75;5093258;28;20054;-64
2022/11/04 03:12:53;;;;;;;1.88;1.67;;;;;;;20.88;48.11;100016.44;5094858;28;20032;-64
2022/11/04 03:15:26;;;;;;;1.63;1.50;;;;;;;20.80;48.11;100019.28;5090947;28;20034;-64
2022/11/04 03:18:07;;;;;;;1.95;1.60;;;;;;;20.94;47.88;100020.91;5088514;28;20180;-64
2022/11/04 03:20:35;;;;;;;1.88;1.50;;;;;;;20.92;47.92;100027.44;5093550;28;20043;-64
2022/11/04 03:23:01;;;;;;;1.85;1.67;;;;;;;20.94;48.06;100035.97;5091502;28;20038;-64
2022/11/04 03:25:35;;;;;;;1.88;1.73;;;;;;;20.86;47.85;100022.97;5094264;28;20396;-64
2022/11/04 03:28:09;;;;;;;2.28;1.70;;;;;;;20.83;48.05;100039.25;5094775;28;20548;-64
2022/11/04 03:30:43;;;;;;;1.58;1.45;;;;;;;20.80;48.40;100045.75;5090494;28;20541;-64
2022/11/04 03:33:37;;;;;;;2.00;1.70;;;;;;;20.85;48.24;100053.09;5088498;28;20043;-64
2022/11/04 03:36:03;;;;;;;1.50;1.40;;;;;;;20.88;48.12;100060.63;5088276;28;20062;-64
2022/11/04 03:38:29;;;;;;;1.52;1.30;;;;;;;20.81;48.22;100056.13;5089443;28;20558;-64
2022/11/04 03:40:58;;;;;;;1.58;1.48;;;;;;;20.90;47.86;100064.69;5088885;28;20054;-64
2022/11/04 03:43:26;;;;;;;1.65;1.42;;;;;;;20.92;48.12;100070.59;5090668;28;20114;-64
2022/11/04 03:45:53;;;;;;;1.40;1.25;;;;;;;20.86;47.89;100071.41;5086820;28;20097;-64
2022/11/04 03:48:19;;;;;;;1.83;1.60;;;;;;;20.87;48.22;100075.69;5086935;28;20469;-64
2022/11/04 03:50:46;;;;;;;1.83;1.63;;;;;;;20.82;48.12;100075.47;5090480;28;20126;-64
2022/11/04 03:53:15;;;;;;;2.65;1.42;;;;;;;20.96;47.81;100073.63;5084618;28;20036;-64
2022/11/04 03:56:12;;;;;;;1.20;1.20;;;;;;;20.84;48.04;100084.03;5084245;28;20043;-64
2022/11/04 03:59:15;;;;;;;2.22;1.73;;;;;;;20.80;48.18;100086.25;5061804;28;20056;-64
2022/11/04 04:01:59;;;;;;;1.70;1.60;;;;;;;20.85;48.18;100096.25;5089219;28;20073;-64
2022/11/04 04:04:31;;;;;;;1.52;1.42;;;;;;;20.81;48.18;100095.81;5088378;28;20036;-64
2022/11/04 04:07:05;;;;;;;1.50;1.38;;;;;;;20.86;47.97;100102.34;5090968;28;20055;-64
2022/11/04 04:09:57;;;;;;;2.40;1.77;;;;;;;20.91;48.07;100094.63;5086044;28;20074;-64
2022/11/04 04:12:35;;;;;;;1.17;1.08;;;;;;;20.84;48.09;100099.91;5089371;28;20080;-64
2022/11/04 04:15:10;;;;;;;1.75;1.23;;;;;;;20.84;48.15;100110.50;5086185;28;20476;-64
2022/11/04 04:17:43;;;;;;;1.58;1.33;;;;;;;20.81;48.30;100109.06;5090824;28;20353;-64
2022/11/04 04:20:17;;;;;;;1.27;1.27;;;;;;;20.83;48.02;100123.94;5081784;28;20044;-64
2022/11/04 04:22:48;;;;;;;1.30;1.20;;;;;;;20.83;48.13;100108.88;5091564;28;20066;-64
2022/11/04 04:28:02;;;;;;;2.22;1.30;;;;;;;20.83;48.06;100130.03;5089480;28;20089;-64
2022/11/04 04:30:28;;;;;;;2.05;1.00;;;;;;;20.83;48.01;100139.81;5087483;28;20042;-64
2022/11/04 04:33:16;;;;;;;1.00;1.00;;;;;;;20.86;47.96;100142.06;5092811;28;20043;-64
2022/11/04 04:35:48;;;;;;;1.20;1.10;;;;;;;20.79;47.96;100149.97;5092005;28;20541;-64
2022/11/04 04:47:19;;;;;;;1.30;1.10;;;;;;;20.88;47.87;100171.78;5089747;28;20071;-64
2022/11/04 04:49:53;;;;;;;1.13;0.98;;;;;;;20.78;48.27;100178.25;5094596;28;20059;-63
2022/11/04 04:52:20;;;;;;;2.33;1.20;;;;;;;20.90;48.05;100188.25;5103741;27;20130;-64
2022/11/04 04:54:46;;;;;;;0.98;0.90;;;;;;;20.77;48.04;100195.16;5089587;28;20138;-64
2022/11/04 04:57:11;;;;;;;1.45;0.95;;;;;;;20.89;47.86;100195.38;5092857;28;20538;-64
2022/11/04 04:59:37;;;;;;;4.30;1.60;;;;;;;20.81;47.92;100187.63;5089697;28;20067;-64
2022/11/04 05:02:02;;;;;;;1.25;1.00;;;;;;;20.84;48.29;100202.31;5102255;27;20043;-64
2022/11/04 05:04:28;;;;;;;1.20;1.10;;;;;;;20.77;48.28;100199.63;5088810;28;22617;-64
2022/11/04 05:06:54;;;;;;;1.45;0.90;;;;;;;20.80;47.98;100202.69;5092055;28;20071;-64
2022/11/04 05:09:20;;;;;;;0.93;0.90;;;;;;;20.80;48.10;100205.31;5090057;28;20040;-64
2022/11/04 05:11:45;;;;;;;1.65;1.33;;;;;;;20.80;48.10;100210.63;5091044;28;20058;-64
2022/11/04 05:14:10;;;;;;;1.00;1.00;;;;;;;20.80;48.23;100207.97;5088193;28;20108;-64
2022/11/04 05:16:36;;;;;;;1.50;1.08;;;;;;;20.73;48.19;100217.75;5087991;28;20032;-64
2022/11/04 05:19:02;;;;;;;1.77;1.23;;;;;;;20.81;48.13;100224.66;5090045;28;20044;-64
2022/11/04 05:21:27;;;;;;;1.08;1.02;;;;;;;20.77;47.92;100223.44;5088115;28;20038;-64
2022/11/04 05:23:52;;;;;;;1.50;1.25;;;;;;;20.81;48.28;100227.31;5095732;28;20043;-64
2022/11/04 05:26:18;;;;;;;1.27;1.10;;;;;;;20.82;48.18;100234.22;5086616;28;20039;-64
2022/11/04 05:28:44;;;;;;;1.15;0.82;;;;;;;20.81;48.26;100236.06;5085767;28;20036;-64
2022/11/04 05:31:09;;;;;;;1.23;1.00;;;;;;;20.78;48.17;100236.47;5084277;28;20614;-64
2022/11/04 05:33:35;;;;;;;1.00;0.90;;;;;;;20.77;48.29;100234.03;5084928;28;20723;-64
2022/11/04 05:36:07;;;;;;;1.40;0.90;;;;;;;20.77;48.19;100247.25;5094247;28;20118;-64
2022/11/04 05:38:32;;;;;;;0.80;0.80;;;;;;;20.76;48.29;100241.16;5089992;28;21023;-64
2022/11/04 05:40:58;;;;;;;1.25;1.10;;;;;;;20.83;48.07;100257.06;5089357;28;20031;-64
2022/11/04 05:43:23;;;;;;;0.98;0.98;;;;;;;20.84;48.15;100247.28;5094893;28;20044;-64
2022/11/04 05:45:49;;;;;;;0.77;0.77;;;;;;;20.78;48.21;100255.00;5091701;28;20038;-64
2022/11/04 05:48:15;;;;;;;0.50;0.50;;;;;;;20.78;48.07;100247.06;5092033;28;20426;-64
2022/11/04 05:50:41;;;;;;;0.80;0.77;;;;;;;20.80;48.06;100262.72;5091259;28;20048;-64
2022/11/04 05:53:06;;;;;;;0.60;0.60;;;;;;;20.75;48.22;100257.22;5096687;28;20128;-64
2022/11/04 05:55:32;;;;;;;0.77;0.60;;;;;;;20.74;48.05;100259.06;5092971;28;20036;-64
2022/11/04 05:57:58;;;;;;;1.15;0.95;;;;;;;20.78;48.07;100262.13;5110296;27;20751;-64
2022/11/04 06:00:25;;;;;;;0.95;0.85;;;;;;;20.78;48.15;100262.94;5089812;28;20027;-64
2022/11/04 06:02:50;;;;;;;1.00;0.73;;;;;;;20.75;48.29;100260.69;5091282;28;20688;-64
2022/11/04 06:05:16;;;;;;;0.93;0.93;;;;;;;20.80;47.91;100249.50;5089398;28;20047;-64
2022/11/04 06:07:41;;;;;;;1.05;1.00;;;;;;;20.70;48.37;100252.53;5091443;28;20358;-64
2022/11/04 06:10:07;;;;;;;1.10;0.85;;;;;;;20.73;48.22;100253.97;5088567;28;20051;-63
2022/11/04 06:12:33;;;;;;;1.05;0.75;;;;;;;20.71;48.37;100256.81;5092728;28;20047;-64
2022/11/04 06:14:58;;;;;;;1.67;0.98;;;;;;;20.70;48.24;100265.78;5093995;28;20039;-64
2022/11/04 06:17:24;;;;;;;0.63;0.63;;;;;;;20.76;48.13;100277.38;5089010;28;20073;-64
2022/11/04 06:19:49;;;;;;;0.75;0.70;;;;;;;20.77;48.26;100290.41;5088933;28;20062;-64
2022/11/04 06:22:17;;;;;;;0.95;0.90;;;;;;;20.71;48.36;100291.22;5093056;28;20385;-64
2022/11/04 06:24:43;;;;;;;1.85;0.93;;;;;;;20.73;48.06;100296.31;5087953;28;20440;-64
2022/11/04 06:27:09;;;;;;;0.77;0.65;;;;;;;20.75;48.19;100308.31;5089858;28;20042;-64
2022/11/04 06:29:40;;;;;;;0.60;0.60;;;;;;;20.70;48.25;100299.34;5092690;28;20039;-64
2022/11/04 06:32:11;;;;;;;1.15;0.70;;;;;;;20.80;47.94;100297.94;5089372;28;20059;-64
2022/11/04 06:34:36;;;;;;;0.82;0.60;;;;;;;20.85;47.80;100297.38;5090750;28;20104;-64
2022/11/04 06:37:02;;;;;;;1.42;0.82;;;;;;;20.82;47.94;100295.09;5091788;28;20039;-64
2022/11/04 06:39:28;;;;;;;0.88;0.73;;;;;;;20.77;48.02;100301.00;5092041;28;20357;-64
2022/11/04 06:41:54;;;;;;;1.20;0.70;;;;;;;20.74;47.93;100303.22;5095578;28;20032;-64
2022/11/04 06:44:19;;;;;;;1.23;0.90;;;;;;;20.71;48.26;100316.84;5093576;28;21041;-64
2022/11/04 06:46:46;;;;;;;0.70;0.65;;;;;;;20.68;48.01;100312.78;5093040;28;20509;-64
2022/11/04 06:49:17;;;;;;;1.17;0.60;;;;;;;20.74;48.22;100327.84;5094289;28;20087;-64
2022/11/04 06:51:43;;;;;;;0.82;0.60;;;;;;;20.79;48.02;100330.72;5093664;28;20180;-64
2022/11/04 06:54:09;;;;;;;1.42;0.82;;;;;;;20.80;47.86;100336.81;5093476;28;20036;-64
2022/11/04 06:56:34;;;;;;;0.73;0.73;;;;;;;20.70;48.29;100337.22;5093435;28;20401;-64
2022/11/04 06:59:00;;;;;;;0.55;0.55;;;;;;;20.72;48.03;100345.75;5086121;28;20158;-64
2022/11/04 07:01:29;;;;;;;0.47;0.47;;;;;;;20.71;48.10;100344.13;5088395;28;20133;-64
2022/11/04 07:04:00;;;;;;;0.60;0.60;;;;;;;20.74;48.07;100343.72;5085949;28;20054;-64
2022/11/04 07:06:30;;;;;;;0.60;0.60;;;;;;;20.64;48.52;100353.03;5084815;28;20100;-64
2022/11/04 07:08:58;;;;;;;1.85;0.75;;;;;;;20.64;48.33;100363.63;5095944;28;22043;-64
2022/11/04 07:11:25;;;;;;;1.23;0.60;;;;;;;20.67;48.18;100365.88;5089581;28;20438;-64
2022/11/04 07:13:51;;;;;;;1.02;0.80;;;;;;;20.68;48.32;100367.53;5089894;28;20035;-64
2022/11/04 07:16:17;;;;;;;0.50;0.50;;;;;;;20.74;48.10;100370.19;5086022;28;20469;-64
2022/11/04 07:18:43;;;;;;;0.70;0.70;;;;;;;20.71;48.10;100375.06;5090646;28;20055;-64
2022/11/04 07:21:09;;;;;;;0.50;0.50;;;;;;;20.77;48.10;100385.66;5083211;28;20552;-64
2022/11/04 07:23:34;;;;;;;0.47;0.47;;;;;;;20.68;48.35;100392.16;5088542;28;20040;-64
2022/11/04 07:26:05;;;;;;;0.63;0.60;;;;;;;20.74;48.30;100387.91;5087496;28;20047;-64
2022/11/04 07:28:32;;;;;;;1.08;0.90;;;;;;;20.78;47.90;100395.22;5084321;28;20104;-64
2022/11/04 07:30:59;;;;;;;1.02;0.70;;;;;;;20.74;48.16;100401.13;5087105;28;20059;-64
2022/11/04 07:33:25;;;;;;;1.00;0.57;;;;;;;20.69;48.15;100404.38;5096125;28;20043;-64
2022/11/04 07:35:52;;;;;;;0.90;0.85;;;;;;;20.72;48.06;100413.75;5089938;28;20035;-64
2022/11/04 07:38:18;;;;;;;0.43;0.40;;;;;;;20.71;48.30;100414.75;5091279;28;20108;-64
2022/11/04 07:40:44;;;;;;;0.73;0.73;;;;;;;20.67;48.10;100424.91;5086977;28;20031;-64
2022/11/04 07:43:09;;;;;;;0.77;0.63;;;;;;;20.70;48.17;100421.06;5092078;28;20108;-64
2022/11/04 07:45:36;;;;;;;1.65;0.80;;;;;;;20.62;48.39;100418.56;5093455;28;20431;-64
2022/11/04 07:48:02;;;;;;;1.25;0.55;;;;;;;20.55;48.44;100429.09;5088476;28;20147;-63
2022/11/04 07:50:27;;;;;;;0.90;0.60;;;;;;;20.61;48.46;100427.50;5092102;28;20052;-64
2022/11/04 07:52:53;;;;;;;1.48;0.70;;;;;;;20.74;48.19;100424.94;5094435;28;20031;-64
2022/11/04 07:55:19;;;;;;;0.50;0.50;;;;;;;20.65;48.37;100437.53;5089113;28;20028;-64
2022/11/04 07:57:45;;;;;;;0.68;0.50;;;;;;;20.74;47.81;100436.34;5088428;28;20039;-65
2022/11/04 08:00:13;;;;;;;1.17;0.82;;;;;;;20.80;48.02;100432.91;5093251;28;20100;-64
2022/11/04 08:02:39;;;;;;;0.40;0.40;;;;;;;20.71;48.20;100442.03;5088689;28;20481;-64
2022/11/04 08:05:05;;;;;;;0.82;0.80;;;;;;;20.78;47.93;100432.28;5091691;28;20049;-64
2022/11/04 08:07:31;;;;;;;0.82;0.50;;;;;;;20.74;47.82;100449.56;5091915;28;20081;-64
2022/11/04 08:09:57;;;;;;;1.48;0.77;;;;;;;20.71;48.24;100452.59;5095583;28;20131;-64
2022/11/04 08:12:23;;;;;;;0.70;0.70;;;;;;;20.79;47.83;100457.72;5089540;28;20032;-64
2022/11/04 08:14:49;;;;;;;0.45;0.40;;;;;;;20.85;47.65;100455.34;5093131;28;20800;-64
2022/11/04 08:17:16;;;;;;;1.13;0.80;;;;;;;20.81;47.91;100461.00;5089073;28;20071;-64
2022/11/04 08:19:41;;;;;;;0.80;0.73;;;;;;;20.88;47.60;100458.41;5092966;28;20052;-64
2022/11/04 08:22:07;;;;;;;0.45;0.22;;;;;;;20.90;47.55;100458.22;5091658;28;20046;-64
2022/11/04 08:24:34;;;;;;;0.70;0.68;;;;;;;20.93;47.48;100460.47;5090541;28;20048;-64
2022/11/04 08:26:59;;;;;;;1.08;0.55;;;;;;;20.86;47.79;100467.56;5089451;28;20039;-64
2022/11/04 08:29:25;;;;;;;1.40;0.90;;;;;;;20.95;47.51;100461.06;5091832;28;20088;-64
2022/11/04 08:31:50;;;;;;;1.10;0.52;;;;;;;20.89;47.43;100465.34;5096531;27;20035;-64
2022/11/04 08:34:17;;;;;;;0.98;0.70;;;;;;;20.87;47.53;100472.66;5091691;28;20032;-65
2022/11/04 08:36:44;;;;;;;0.80;0.57;;;;;;;20.84;47.83;100477.53;5087791;28;20035;-63
2022/11/04 08:39:11;;;;;;;0.68;0.60;;;;;;;20.97;47.53;100472.28;5097518;28;20508;-64
2022/11/04 08:41:39;;;;;;;1.20;0.70;;;;;;;20.87;47.53;100479.78;5098941;28;20046;-63
2022/11/04 08:44:06;;;;;;;2.00;0.95;;;;;;;20.85;47.69;100479.16;5094236;28;20695;-64
2022/11/04 08:46:35;;;;;;;0.85;0.70;;;;;;;20.83;47.75;100482.00;5095681;28;20124;-64
2022/11/04 08:49:00;;;;;;;0.82;0.60;;;;;;;20.91;47.42;100491.59;5091502;28;20039;-65
2022/11/04 08:51:27;;;;;;;1.08;0.73;;;;;;;20.89;47.55;100490.97;5099602;28;20048;-64
2022/11/04 08:53:53;;;;;;;0.70;0.60;;;;;;;20.90;47.47;100482.03;5091407;28;20024;-64
2022/11/04 08:56:25;;;;;;;0.60;0.60;;;;;;;20.83;47.78;100489.13;5098039;28;20560;-64
2022/11/04 08:58:52;;;;;;;1.00;0.70;;;;;;;20.81;47.61;100478.72;5087112;28;20074;-64
2022/11/04 09:01:19;;;;;;;0.88;0.60;;;;;;;20.85;47.53;100492.38;5092806;28;20050;-64
2022/11/04 09:03:45;;;;;;;0.20;0.20;;;;;;;20.84;47.69;100485.47;5089457;28;20678;-64
2022/11/04 09:06:14;;;;;;;0.30;0.30;;;;;;;20.91;47.47;100492.41;5089149;28;20047;-64
2022/11/04 09:08:42;;;;;;;1.38;0.68;;;;;;;20.87;47.74;100498.31;5087940;28;20035;-63
2022/11/04 09:11:10;;;;;;;3.40;0.65;;;;;;;20.86;47.54;100501.97;5086535;28;20154;-64
2022/11/04 09:13:37;;;;;;;0.80;0.50;;;;;;;20.81;47.90;100499.88;5089625;28;20426;-64
2022/11/04 09:16:03;;;;;;;0.93;0.63;;;;;;;20.89;47.72;100512.97;5090573;28;20109;-64
2022/11/04 09:18:29;;;;;;;0.60;0.60;;;;;;;20.89;47.77;100509.50;5091027;28;20055;-64
2022/11/04 09:20:59;;;;;;;0.60;0.57;;;;;;;20.84;47.66;100494.22;5085382;28;20188;-64
2022/11/04 09:23:24;;;;;;;1.08;0.70;;;;;;;20.85;47.82;100506.44;5089935;28;20031;-64
2022/11/04 09:25:50;;;;;;;0.40;0.40;;;;;;;20.88;47.80;100516.63;5087713;28;20670;-65
2022/11/04 09:28:15;;;;;;;2.30;0.52;;;;;;;20.88;47.49;100521.13;5087815;28;20046;-64
2022/11/04 09:30:41;;;;;;;1.23;0.70;;;;;;;20.83;47.46;100523.53;5090873;28;20085;-64
2022/11/04 09:33:06;;;;;;;0.40;0.40;;;;;;;20.89;47.41;100535.97;5083042;28;20035;-67
2022/11/04 09:35:32;;;;;;;1.13;0.70;;;;;;;21.21;46.21;100537.19;5034391;28;20506;-68
2022/11/04 09:37:59;;;;;;;2.15;0.88;;;;;;;21.42;45.66;100545.88;5038726;28;20046;-68
2022/11/04 09:40:25;;;;;;;1.80;0.80;;;;;;;21.47;45.28;100541.81;5088419;28;20032;-67
2022/11/04 09:43:08;;;;;;;2.50;0.90;;;;;;;21.54;45.06;100553.25;5088914;28;20078;-64
2022/11/04 09:45:38;;;;;;;2.95;1.10;;;;;;;21.61;44.78;100562.88;5079497;28;20036;-67
2022/11/04 09:48:10;;;;;;;1.58;0.70;;;;;;;21.59;44.72;100562.25;5088533;28;20105;-66
2022/11/04 09:50:50;;;;;;;2.33;0.70;;;;;;;21.65;44.47;100566.75;5080409;28;20051;-65
2022/11/04 09:53:22;;;;;;;1.58;0.60;;;;;;;21.70;44.40;100564.34;5064926;28;20036;-64
2022/11/04 09:55:57;;;;;;;4.03;1.08;;;;;;;21.74;44.39;100582.50;5088113;28;20763;-65
2022/11/04 09:58:23;;;;;;;1.83;0.90;;;;;;;21.76;44.10;100588.44;5091255;28;20047;-64
2022/11/04 10:01:21;;;;;;;0.45;0.40;;;;;;;21.77;44.19;100592.72;5091610;28;20087;-65
2022/11/04 10:04:03;;;;;;;2.13;0.65;;;;;;;21.78;44.52;100603.13;5069968;28;20058;-66
2022/11/04 10:06:41;;;;;;;1.70;0.70;;;;;;;21.78;44.09;100603.13;5075224;28;20648;-64
2022/11/04 10:09:16;;;;;;;1.40;1.30;;;;;;;21.79;44.21;100604.75;5092214;28;20036;-68
2022/11/04 10:12:19;;;;;;;1.45;1.15;;;;;;;21.83;43.83;100599.88;5090625;28;20063;-65
2022/11/04 10:15:29;;;;;;;2.25;0.98;;;;;;;21.81;43.93;100607.19;5035916;28;20515;-66
2022/11/04 10:18:34;;;;;;;1.95;0.95;;;;;;;21.38;45.03;100602.09;5082942;28;20039;-65
2022/11/04 10:21:18;;;;;;;2.65;1.15;;;;;;;21.01;45.80;100600.63;5083224;28;20063;-66
2022/11/04 10:23:56;;;;;;;1.98;0.88;;;;;;;20.90;45.92;100611.72;5096668;28;20047;-65
2022/11/04 10:26:32;;;;;;;2.03;0.68;;;;;;;20.83;45.94;100595.81;5090781;28;20044;-65
2022/11/04 10:29:04;;;;;;;2.42;1.05;;;;;;;20.90;45.97;100606.44;5095703;28;20488;-65
2022/11/04 10:31:30;;;;;;;1.83;0.90;;;;;;;20.80;46.23;100610.22;5091169;28;20051;-66
2022/11/04 10:34:04;;;;;;;2.42;0.90;;;;;;;20.67;46.58;100612.75;5094732;28;20024;-66
2022/11/04 10:36:30;;;;;;;3.25;1.02;;;;;;;20.68;46.20;100616.22;5096045;28;20451;-66
2022/11/04 10:38:57;;;;;;;4.40;1.20;;;;;;;20.71;46.41;100619.31;5096196;28;20652;-66
2022/11/04 10:41:23;;;;;;;2.88;1.10;;;;;;;20.67;46.43;100627.81;5092855;27;20067;-65
2022/11/04 10:43:52;;;;;;;2.80;1.05;;;;;;;20.63;46.34;100632.66;5097646;28;20722;-65
2022/11/04 10:46:30;;;;;;;1.80;0.90;;;;;;;20.61;46.53;100637.31;5091102;28;20067;-65
2022/11/04 10:49:25;;;;;;;2.67;1.23;;;;;;;20.58;46.57;100642.16;5092433;28;20043;-66
2022/11/04 10:51:52;;;;;;;1.65;1.10;;;;;;;20.59;46.52;100655.22;5096954;28;20162;-65
2022/11/04 10:54:18;;;;;;;2.97;0.93;;;;;;;20.56;46.72;100655.59;5091555;28;20078;-66
2022/11/04 10:56:49;;;;;;;2.28;1.10;;;;;;;20.62;46.39;100654.00;5092274;28;20039;-66
2022/11/04 10:59:28;;;;;;;3.28;1.33;;;;;;;20.50;46.78;100657.16;5092545;28;20549;-66
2022/11/04 11:01:54;;;;;;;2.17;1.30;;;;;;;20.53;46.65;100648.03;5089551;28;20035;-65
2022/11/04 11:04:33;;;;;;;2.53;1.10;;;;;;;20.46;46.80;100647.13;5087892;28;21046;-66
2022/11/04 11:07:01;;;;;;;2.65;1.08;;;;;;;20.56;46.71;100644.19;5087015;28;20127;-66
2022/11/04 11:09:29;;;;;;;8.10;2.17;;;;;;;20.57;46.48;100641.34;5088493;27;20076;-65
2022/11/04 11:12:19;;;;;;;1.75;1.08;;;;;;;20.46;46.58;100641.84;5088076;28;20043;-65
2022/11/04 11:14:46;;;;;;;2.33;1.02;;;;;;;20.48;46.90;100645.16;5087812;28;20523;-66
2022/11/04 11:17:14;;;;;;;4.00;1.35;;;;;;;20.46;46.86;100655.88;5086827;28;20044;-66
2022/11/04 11:19:45;;;;;;;3.40;1.38;;;;;;;20.49;46.78;100663.47;5090440;28;20051;-65
2022/11/04 11:22:30;;;;;;;4.93;1.10;;;;;;;20.44;46.71;100663.19;5085758;28;21119;-65
2022/11/04 11:25:21;;;;;;;3.33;1.30;;;;;;;20.47;46.76;100673.41;5086791;28;20111;-66
2022/11/04 11:27:49;;;;;;;1.88;1.10;;;;;;;20.43;46.94;100666.84;5090559;28;20040;-66
2022/11/04 11:30:19;;;;;;;4.55;1.25;;;;;;;20.39;46.91;100670.84;5093370;28;20073;-68
2022/11/04 11:32:45;;;;;;;3.00;1.00;;;;;;;20.33;47.19;100676.06;5090821;28;20505;-65
2022/11/04 11:35:16;;;;;;;2.67;1.10;;;;;;;20.42;46.77;100669.69;5094653;28;20436;-66
2022/11/04 11:37:46;;;;;;;3.78;1.33;;;;;;;20.44;46.70;100667.66;5087791;28;20481;-67
2022/11/04 11:40:27;;;;;;;3.00;1.20;;;;;;;20.44;46.88;100678.25;5093704;28;20050;-66
2022/11/04 11:42:54;;;;;;;2.08;1.40;;;;;;;20.45;46.81;100677.22;5091294;28;20036;-65
2022/11/04 11:45:22;;;;;;;2.03;1.10;;;;;;;20.48;46.69;100692.75;5089601;28;20031;-65
2022/11/04 11:47:53;;;;;;;1.15;0.82;;;;;;;20.38;46.95;100692.19;5090524;28;20040;-65
2022/11/04 11:50:34;;;;;;;2.85;1.00;;;;;;;20.42;47.05;100690.84;5086097;28;20055;-65
2022/11/04 11:53:16;;;;;;;3.70;1.60;;;;;;;20.33;47.45;100694.59;5091553;28;20027;-66
2022/11/04 11:55:47;;;;;;;1.27;1.00;;;;;;;20.45;47.11;100693.91;5086124;28;20035;-66
2022/11/04 11:58:37;;;;;;;5.53;1.73;;;;;;;20.32;47.22;100685.00;5091157;28;20031;-66
2022/11/04 12:01:13;;;;;;;6.53;2.17;;;;;;;20.41;46.92;100690.03;5089477;28;20036;-67
2022/11/04 12:03:44;;;;;;;2.17;1.20;;;;;;;20.41;47.01;100694.50;5087055;28;20379;-65
2022/11/04 12:06:34;;;;;;;3.05;1.42;;;;;;;20.40;47.11;100701.56;5092433;28;20072;-66
2022/11/04 12:09:03;;;;;;;3.53;1.42;;;;;;;20.42;46.72;100712.81;5099006;28;20040;-65
2022/11/04 12:11:50;;;;;;;4.20;1.50;;;;;;;20.43;46.86;100718.91;5091700;28;20039;-65